sensor_id;sensor_type;location;lat;lon;timestamp;temperature;humidity
31455;DHT22;18084;53.028;8.834;2023-11-19T00:01:31;6.40;99.90
31455;DHT22;18084;53.028;8.834;2023-11-19T00:03:58;6.70;99.90
31455;DHT22;18084;53.028;8.834;2023-11-19T00:06:23;6.70;99.90
31455;DHT22;18084;53.028;8.834;2023-11-19T00:08:50;6.70;99.90
31455;DHT22;18084;53.028;8.834;2023-11-19T00:11:16;6.70;99.90
31455;DHT22;18084;53.028;8.834;2023-11-19T01:27:24;7.30;99.90
31455;DHT22;18084;53.028;8.834;2023-11-19T01:29:50;7.40;99.90
31455;DHT22;18084;53.028;8.834;2023-11-19T01:32:15;7.40;99.90
31455;DHT22;18084;53.028;8.834;2023-11-19T01:34:41;7.50;99.90
31455;DHT22;18084;53.028;8.834;2023-11-19T01:37:06;7.40;99.90
31455;DHT22;18084;53.028;8.834;2023-11-19T01:39:34;7.50;99.90
31455;DHT22;18084;53.028;8.834;2023-11-19T01:41:59;7.50;99.90
31455;DHT22;18084;53.028;8.834;2023-11-19T01:44:25;7.40;99.90
31455;DHT22;18084;53.028;8.834;2023-11-19T01:46:50;10.80;99.90
31455;DHT22;18084;53.028;8.834;2023-11-19T01:49:16;7.70;99.90
31455;DHT22;18084;53.028;8.834;2023-11-19T01:51:43;7.70;99.90
31455;DHT22;18084;53.028;8.834;2023-11-19T01:54:08;7.80;99.90
31455;DHT22;18084;53.028;8.834;2023-11-19T01:56:34;7.90;99.90
31455;DHT22;18084;53.028;8.834;2023-11-19T01:59:00;7.90;99.90
31455;DHT22;18084;53.028;8.834;2023-11-19T02:01:26;8.10;99.90
31455;DHT22;18084;53.028;8.834;2023-11-19T02:03:52;8.10;99.90
31455;DHT22;18084;53.028;8.834;2023-11-19T02:06:17;8.20;99.90
31455;DHT22;18084;53.028;8.834;2023-11-19T02:08:43;8.30;99.90
31455;DHT22;18084;53.028;8.834;2023-11-19T02:11:11;8.30;99.90
31455;DHT22;18084;53.028;8.834;2023-11-19T02:13:37;10.40;99.90
31455;DHT22;18084;53.028;8.834;2023-11-19T02:16:03;8.40;99.90
31455;DHT22;18084;53.028;8.834;2023-11-19T02:18:29;8.70;99.90
31455;DHT22;18084;53.028;8.834;2023-11-19T02:20:55;8.70;99.90
31455;DHT22;18084;53.028;8.834;2023-11-19T02:23:21;8.60;99.90
31455;DHT22;18084;53.028;8.834;2023-11-19T02:25:47;8.90;99.90
31455;DHT22;18084;53.028;8.834;2023-11-19T02:28:18;9.10;99.90
31455;DHT22;18084;53.028;8.834;2023-11-19T02:30:44;9.00;99.90
31455;DHT22;18084;53.028;8.834;2023-11-19T02:33:09;9.30;99.90
31455;DHT22;18084;53.028;8.834;2023-11-19T02:35:34;9.60;99.90
31455;DHT22;18084;53.028;8.834;2023-11-19T02:38:00;9.40;99.90
31455;DHT22;18084;53.028;8.834;2023-11-19T02:40:26;9.40;99.90
31455;DHT22;18084;53.028;8.834;2023-11-19T02:42:54;9.30;99.90
31455;DHT22;18084;53.028;8.834;2023-11-19T02:45:24;9.60;99.90
31455;DHT22;18084;53.028;8.834;2023-11-19T02:47:50;9.50;99.90
31455;DHT22;18084;53.028;8.834;2023-11-19T02:50:17;9.60;99.90
31455;DHT22;18084;53.028;8.834;2023-11-19T02:52:43;9.70;99.90
31455;DHT22;18084;53.028;8.834;2023-11-19T02:55:09;10.30;99.90
31455;DHT22;18084;53.028;8.834;2023-11-19T02:57:38;9.90;99.90
31455;DHT22;18084;53.028;8.834;2023-11-19T03:00:03;9.90;99.90
31455;DHT22;18084;53.028;8.834;2023-11-19T03:02:39;10.00;99.90
31455;DHT22;18084;53.028;8.834;2023-11-19T03:05:10;10.00;99.90
31455;DHT22;18084;53.028;8.834;2023-11-19T03:07:36;10.00;99.90
31455;DHT22;18084;53.028;8.834;2023-11-19T03:10:01;10.10;99.90
31455;DHT22;18084;53.028;8.834;2023-11-19T03:12:27;10.10;99.90
31455;DHT22;18084;53.028;8.834;2023-11-19T03:14:52;9.90;99.90
31455;DHT22;18084;53.028;8.834;2023-11-19T03:17:18;10.00;99.90
31455;DHT22;18084;53.028;8.834;2023-11-19T03:19:44;10.20;99.90
31455;DHT22;18084;53.028;8.834;2023-11-19T03:22:09;10.30;99.90
31455;DHT22;18084;53.028;8.834;2023-11-19T03:24:36;10.20;99.90
31455;DHT22;18084;53.028;8.834;2023-11-19T03:27:01;10.30;99.90
31455;DHT22;18084;53.028;8.834;2023-11-19T03:29:27;10.30;99.90
31455;DHT22;18084;53.028;8.834;2023-11-19T03:31:53;10.20;99.90
31455;DHT22;18084;53.028;8.834;2023-11-19T03:34:19;10.30;99.90
31455;DHT22;18084;53.028;8.834;2023-11-19T03:36:44;10.40;99.90
31455;DHT22;18084;53.028;8.834;2023-11-19T03:39:10;10.20;99.90
31455;DHT22;18084;53.028;8.834;2023-11-19T03:41:36;10.20;99.90
31455;DHT22;18084;53.028;8.834;2023-11-19T03:44:22;10.50;99.90
31455;DHT22;18084;53.028;8.834;2023-11-19T03:46:47;10.20;99.90
31455;DHT22;18084;53.028;8.834;2023-11-19T03:49:13;10.30;99.90
31455;DHT22;18084;53.028;8.834;2023-11-19T03:51:38;10.20;99.90
31455;DHT22;18084;53.028;8.834;2023-11-19T03:54:04;10.50;99.90
31455;DHT22;18084;53.028;8.834;2023-11-19T03:56:31;10.90;99.90
31455;DHT22;18084;53.028;8.834;2023-11-19T03:58:57;10.50;99.90
31455;DHT22;18084;53.028;8.834;2023-11-19T04:01:22;10.00;99.90
31455;DHT22;18084;53.028;8.834;2023-11-19T04:03:48;10.60;99.90
31455;DHT22;18084;53.028;8.834;2023-11-19T04:06:13;9.80;99.90
31455;DHT22;18084;53.028;8.834;2023-11-19T04:08:39;10.60;99.90
31455;DHT22;18084;53.028;8.834;2023-11-19T04:11:04;10.60;99.90
31455;DHT22;18084;53.028;8.834;2023-11-19T04:13:30;11.90;99.90
31455;DHT22;18084;53.028;8.834;2023-11-19T04:15:56;10.50;99.90
31455;DHT22;18084;53.028;8.834;2023-11-19T04:18:21;10.40;99.90
31455;DHT22;18084;53.028;8.834;2023-11-19T04:20:47;10.50;99.90
31455;DHT22;18084;53.028;8.834;2023-11-19T04:23:12;12.70;99.90
31455;DHT22;18084;53.028;8.834;2023-11-19T04:25:37;10.50;99.90
31455;DHT22;18084;53.028;8.834;2023-11-19T04:28:03;10.70;99.90
31455;DHT22;18084;53.028;8.834;2023-11-19T04:30:29;10.70;99.90
31455;DHT22;18084;53.028;8.834;2023-11-19T04:32:57;12.90;99.90
31455;DHT22;18084;53.028;8.834;2023-11-19T04:35:22;10.70;99.90
31455;DHT22;18084;53.028;8.834;2023-11-19T04:37:48;10.50;99.90
31455;DHT22;18084;53.028;8.834;2023-11-19T04:40:13;10.40;99.90
31455;DHT22;18084;53.028;8.834;2023-11-19T04:42:39;10.90;99.90
31455;DHT22;18084;53.028;8.834;2023-11-19T04:45:06;10.80;99.90
31455;DHT22;18084;53.028;8.834;2023-11-19T04:47:32;10.80;99.90
31455;DHT22;18084;53.028;8.834;2023-11-19T04:49:58;10.90;99.90
31455;DHT22;18084;53.028;8.834;2023-11-19T04:52:23;11.00;99.90
31455;DHT22;18084;53.028;8.834;2023-11-19T04:54:49;10.90;99.90
31455;DHT22;18084;53.028;8.834;2023-11-19T04:57:14;11.00;99.90
31455;DHT22;18084;53.028;8.834;2023-11-19T04:59:46;11.00;99.90
31455;DHT22;18084;53.028;8.834;2023-11-19T05:02:11;14.90;99.90
31455;DHT22;18084;53.028;8.834;2023-11-19T05:04:36;10.70;99.90
31455;DHT22;18084;53.028;8.834;2023-11-19T05:07:03;11.40;99.90
31455;DHT22;18084;53.028;8.834;2023-11-19T05:09:28;11.10;99.90
31455;DHT22;18084;53.028;8.834;2023-11-19T05:11:54;11.20;99.90
31455;DHT22;18084;53.028;8.834;2023-11-19T05:14:19;11.10;99.90
31455;DHT22;18084;53.028;8.834;2023-11-19T05:16:45;11.00;99.90
31455;DHT22;18084;53.028;8.834;2023-11-19T05:19:11;11.10;99.90
31455;DHT22;18084;53.028;8.834;2023-11-19T05:21:37;11.10;99.90
31455;DHT22;18084;53.028;8.834;2023-11-19T05:24:02;11.10;99.90
31455;DHT22;18084;53.028;8.834;2023-11-19T05:26:31;11.10;99.90
31455;DHT22;18084;53.028;8.834;2023-11-19T05:28:56;11.00;99.90
31455;DHT22;18084;53.028;8.834;2023-11-19T05:31:22;11.00;99.90
31455;DHT22;18084;53.028;8.834;2023-11-19T05:33:47;11.10;99.90
31455;DHT22;18084;53.028;8.834;2023-11-19T05:36:13;11.00;99.90
31455;DHT22;18084;53.028;8.834;2023-11-19T05:38:39;11.10;99.90
31455;DHT22;18084;53.028;8.834;2023-11-19T05:41:04;11.00;99.90
31455;DHT22;18084;53.028;8.834;2023-11-19T05:43:30;11.00;99.90
31455;DHT22;18084;53.028;8.834;2023-11-19T05:45:56;11.10;99.90
31455;DHT22;18084;53.028;8.834;2023-11-19T05:48:21;11.70;99.90
31455;DHT22;18084;53.028;8.834;2023-11-19T05:50:47;10.80;99.90
31455;DHT22;18084;53.028;8.834;2023-11-19T05:53:14;11.10;99.90
31455;DHT22;18084;53.028;8.834;2023-11-19T05:55:40;11.10;99.90
31455;DHT22;18084;53.028;8.834;2023-11-19T05:58:14;11.10;99.90
31455;DHT22;18084;53.028;8.834;2023-11-19T06:00:39;11.20;99.90
31455;DHT22;18084;53.028;8.834;2023-11-19T06:03:05;11.20;99.90
31455;DHT22;18084;53.028;8.834;2023-11-19T06:05:32;11.60;99.90
31455;DHT22;18084;53.028;8.834;2023-11-19T06:07:57;11.20;99.90
31455;DHT22;18084;53.028;8.834;2023-11-19T06:10:23;11.20;99.90
31455;DHT22;18084;53.028;8.834;2023-11-19T06:12:54;11.20;99.90
31455;DHT22;18084;53.028;8.834;2023-11-19T06:15:22;11.30;99.90
31455;DHT22;18084;53.028;8.834;2023-11-19T06:17:47;11.30;99.90
31455;DHT22;18084;53.028;8.834;2023-11-19T06:20:13;11.20;99.90
31455;DHT22;18084;53.028;8.834;2023-11-19T06:22:42;11.20;99.90
31455;DHT22;18084;53.028;8.834;2023-11-19T06:25:11;11.40;99.90
31455;DHT22;18084;53.028;8.834;2023-11-19T06:27:36;11.40;99.90
31455;DHT22;18084;53.028;8.834;2023-11-19T06:30:02;11.20;99.90
31455;DHT22;18084;53.028;8.834;2023-11-19T06:32:27;11.50;99.90
31455;DHT22;18084;53.028;8.834;2023-11-19T06:34:54;11.30;99.90
31455;DHT22;18084;53.028;8.834;2023-11-19T06:37:22;11.40;99.90
31455;DHT22;18084;53.028;8.834;2023-11-19T06:39:47;13.80;99.90
31455;DHT22;18084;53.028;8.834;2023-11-19T06:42:12;14.60;99.90
31455;DHT22;18084;53.028;8.834;2023-11-19T06:44:38;11.40;99.90
31455;DHT22;18084;53.028;8.834;2023-11-19T06:47:03;11.40;99.90
31455;DHT22;18084;53.028;8.834;2023-11-19T06:49:29;11.50;99.90
31455;DHT22;18084;53.028;8.834;2023-11-19T06:51:54;12.70;99.90
31455;DHT22;18084;53.028;8.834;2023-11-19T06:54:20;11.50;99.90
31455;DHT22;18084;53.028;8.834;2023-11-19T06:56:46;11.40;99.90
31455;DHT22;18084;53.028;8.834;2023-11-19T06:59:11;11.40;99.90
31455;DHT22;18084;53.028;8.834;2023-11-19T07:01:37;14.20;99.90
31455;DHT22;18084;53.028;8.834;2023-11-19T07:04:03;11.40;99.90
31455;DHT22;18084;53.028;8.834;2023-11-19T07:06:35;11.40;99.90
31455;DHT22;18084;53.028;8.834;2023-11-19T07:09:01;11.30;99.90
31455;DHT22;18084;53.028;8.834;2023-11-19T07:11:35;11.40;99.90
31455;DHT22;18084;53.028;8.834;2023-11-19T07:14:00;11.50;99.90
31455;DHT22;18084;53.028;8.834;2023-11-19T07:16:27;13.30;99.90
31455;DHT22;18084;53.028;8.834;2023-11-19T07:18:52;11.50;99.90
31455;DHT22;18084;53.028;8.834;2023-11-19T07:21:18;11.50;99.90
31455;DHT22;18084;53.028;8.834;2023-11-19T07:23:43;11.50;99.90
31455;DHT22;18084;53.028;8.834;2023-11-19T07:26:12;11.30;99.90
31455;DHT22;18084;53.028;8.834;2023-11-19T07:28:38;11.40;99.90
31455;DHT22;18084;53.028;8.834;2023-11-19T07:31:05;11.40;99.90
31455;DHT22;18084;53.028;8.834;2023-11-19T07:33:33;11.40;99.90
31455;DHT22;18084;53.028;8.834;2023-11-19T07:35:58;11.60;99.90
31455;DHT22;18084;53.028;8.834;2023-11-19T07:38:24;11.40;99.90
31455;DHT22;18084;53.028;8.834;2023-11-19T07:40:49;11.30;99.90
31455;DHT22;18084;53.028;8.834;2023-11-19T07:43:15;11.40;99.90
31455;DHT22;18084;53.028;8.834;2023-11-19T07:45:41;12.90;99.90
31455;DHT22;18084;53.028;8.834;2023-11-19T07:48:09;11.30;99.90
31455;DHT22;18084;53.028;8.834;2023-11-19T07:50:34;11.20;99.90
31455;DHT22;18084;53.028;8.834;2023-11-19T07:53:00;11.20;99.90
31455;DHT22;18084;53.028;8.834;2023-11-19T07:55:25;12.00;99.90
31455;DHT22;18084;53.028;8.834;2023-11-19T07:57:52;11.10;99.90
31455;DHT22;18084;53.028;8.834;2023-11-19T08:00:21;11.30;99.90
31455;DHT22;18084;53.028;8.834;2023-11-19T08:02:46;11.40;99.90
31455;DHT22;18084;53.028;8.834;2023-11-19T08:05:12;11.30;99.90
31455;DHT22;18084;53.028;8.834;2023-11-19T08:07:37;11.30;99.90
31455;DHT22;18084;53.028;8.834;2023-11-19T08:10:04;11.30;99.90
31455;DHT22;18084;53.028;8.834;2023-11-19T08:12:31;11.30;99.90
31455;DHT22;18084;53.028;8.834;2023-11-19T08:14:56;11.30;99.90
31455;DHT22;18084;53.028;8.834;2023-11-19T08:17:26;11.20;99.90
31455;DHT22;18084;53.028;8.834;2023-11-19T08:19:52;11.30;99.90
31455;DHT22;18084;53.028;8.834;2023-11-19T08:22:18;11.20;99.90
31455;DHT22;18084;53.028;8.834;2023-11-19T08:24:43;13.90;99.90
31455;DHT22;18084;53.028;8.834;2023-11-19T08:27:08;12.80;99.90
31455;DHT22;18084;53.028;8.834;2023-11-19T08:29:34;11.30;99.90
31455;DHT22;18084;53.028;8.834;2023-11-19T08:32:00;11.30;99.90
31455;DHT22;18084;53.028;8.834;2023-11-19T08:34:27;11.30;99.90
31455;DHT22;18084;53.028;8.834;2023-11-19T08:36:52;12.30;99.90
31455;DHT22;18084;53.028;8.834;2023-11-19T08:39:21;11.40;99.90
31455;DHT22;18084;53.028;8.834;2023-11-19T08:41:47;11.30;99.90
31455;DHT22;18084;53.028;8.834;2023-11-19T08:44:13;12.70;99.90
31455;DHT22;18084;53.028;8.834;2023-11-19T08:46:38;11.60;99.90
31455;DHT22;18084;53.028;8.834;2023-11-19T08:49:05;11.80;99.90
31455;DHT22;18084;53.028;8.834;2023-11-19T08:51:30;11.60;99.90
31455;DHT22;18084;53.028;8.834;2023-11-19T08:53:56;11.70;99.90
31455;DHT22;18084;53.028;8.834;2023-11-19T08:56:22;12.20;99.90
31455;DHT22;18084;53.028;8.834;2023-11-19T08:58:48;12.70;99.90
31455;DHT22;18084;53.028;8.834;2023-11-19T09:01:14;12.60;99.90
31455;DHT22;18084;53.028;8.834;2023-11-19T09:03:39;13.10;99.90
31455;DHT22;18084;53.028;8.834;2023-11-19T09:06:05;13.30;99.90
31455;DHT22;18084;53.028;8.834;2023-11-19T09:08:31;13.00;99.90
31455;DHT22;18084;53.028;8.834;2023-11-19T09:10:56;12.90;99.90
31455;DHT22;18084;53.028;8.834;2023-11-19T09:13:22;13.10;99.90
31455;DHT22;18084;53.028;8.834;2023-11-19T09:15:48;13.00;99.90
31455;DHT22;18084;53.028;8.834;2023-11-19T09:18:13;12.70;99.90
31455;DHT22;18084;53.028;8.834;2023-11-19T09:20:39;13.00;99.90
31455;DHT22;18084;53.028;8.834;2023-11-19T09:23:05;15.90;99.90
31455;DHT22;18084;53.028;8.834;2023-11-19T09:25:31;12.40;99.90
31455;DHT22;18084;53.028;8.834;2023-11-19T09:27:56;12.30;99.90
31455;DHT22;18084;53.028;8.834;2023-11-19T09:30:21;12.10;99.90
31455;DHT22;18084;53.028;8.834;2023-11-19T09:32:48;12.10;99.90
31455;DHT22;18084;53.028;8.834;2023-11-19T09:35:13;12.00;99.90
31455;DHT22;18084;53.028;8.834;2023-11-19T09:37:40;11.80;99.90
31455;DHT22;18084;53.028;8.834;2023-11-19T09:40:05;11.70;99.90
31455;DHT22;18084;53.028;8.834;2023-11-19T09:42:38;11.70;99.90
31455;DHT22;18084;53.028;8.834;2023-11-19T09:45:07;11.60;99.90
31455;DHT22;18084;53.028;8.834;2023-11-19T09:47:37;11.50;99.90
31455;DHT22;18084;53.028;8.834;2023-11-19T09:50:03;11.70;99.90
31455;DHT22;18084;53.028;8.834;2023-11-19T09:52:30;11.50;99.90
31455;DHT22;18084;53.028;8.834;2023-11-19T09:54:56;11.50;99.90
31455;DHT22;18084;53.028;8.834;2023-11-19T09:57:21;11.50;99.90
31455;DHT22;18084;53.028;8.834;2023-11-19T09:59:46;11.50;99.90
31455;DHT22;18084;53.028;8.834;2023-11-19T10:02:12;11.40;99.90
31455;DHT22;18084;53.028;8.834;2023-11-19T10:04:38;12.50;99.90
31455;DHT22;18084;53.028;8.834;2023-11-19T10:07:05;11.20;99.90
31455;DHT22;18084;53.028;8.834;2023-11-19T10:09:30;11.40;99.90
31455;DHT22;18084;53.028;8.834;2023-11-19T10:11:55;11.00;99.90
31455;DHT22;18084;53.028;8.834;2023-11-19T10:14:23;11.30;99.90
31455;DHT22;18084;53.028;8.834;2023-11-19T10:16:51;11.60;99.90
31455;DHT22;18084;53.028;8.834;2023-11-19T10:19:20;12.40;99.90
31455;DHT22;18084;53.028;8.834;2023-11-19T10:21:45;11.40;99.90
31455;DHT22;18084;53.028;8.834;2023-11-19T10:24:11;14.10;99.90
31455;DHT22;18084;53.028;8.834;2023-11-19T10:26:37;11.50;99.90
31455;DHT22;18084;53.028;8.834;2023-11-19T10:29:02;11.60;99.90
31455;DHT22;18084;53.028;8.834;2023-11-19T10:31:29;11.70;99.90
31455;DHT22;18084;53.028;8.834;2023-11-19T10:33:54;11.70;99.90
31455;DHT22;18084;53.028;8.834;2023-11-19T10:36:20;11.70;99.90
31455;DHT22;18084;53.028;8.834;2023-11-19T10:41:29;11.90;99.90
31455;DHT22;18084;53.028;8.834;2023-11-19T10:43:56;12.00;99.90
31455;DHT22;18084;53.028;8.834;2023-11-19T10:46:21;12.10;99.90
31455;DHT22;18084;53.028;8.834;2023-11-19T10:48:49;10.30;99.90
31455;DHT22;18084;53.028;8.834;2023-11-19T10:51:18;11.90;99.90
31455;DHT22;18084;53.028;8.834;2023-11-19T10:53:46;11.90;99.90
31455;DHT22;18084;53.028;8.834;2023-11-19T10:56:19;11.20;99.90
31455;DHT22;18084;53.028;8.834;2023-11-19T10:58:45;12.00;99.90
31455;DHT22;18084;53.028;8.834;2023-11-19T11:01:16;12.00;99.90
31455;DHT22;18084;53.028;8.834;2023-11-19T11:03:44;11.70;99.90
31455;DHT22;18084;53.028;8.834;2023-11-19T11:06:44;11.70;99.90
31455;DHT22;18084;53.028;8.834;2023-11-19T11:09:33;13.60;99.90
31455;DHT22;18084;53.028;8.834;2023-11-19T11:12:08;13.60;99.90
31455;DHT22;18084;53.028;8.834;2023-11-19T11:14:37;11.60;99.90
31455;DHT22;18084;53.028;8.834;2023-11-19T11:17:03;13.80;99.90
31455;DHT22;18084;53.028;8.834;2023-11-19T11:19:33;13.20;99.90
31455;DHT22;18084;53.028;8.834;2023-11-19T11:21:59;13.70;99.90
31455;DHT22;18084;53.028;8.834;2023-11-19T11:29:52;12.00;99.90
31455;DHT22;18084;53.028;8.834;2023-11-19T11:32:33;11.90;99.90
31455;DHT22;18084;53.028;8.834;2023-11-19T11:37:44;11.70;99.90
31455;DHT22;18084;53.028;8.834;2023-11-19T11:41:38;12.00;99.90
31455;DHT22;18084;53.028;8.834;2023-11-19T11:44:04;14.40;99.90
31455;DHT22;18084;53.028;8.834;2023-11-19T11:49:41;12.00;99.90
31455;DHT22;18084;53.028;8.834;2023-11-19T11:54:41;12.00;99.90
31455;DHT22;18084;53.028;8.834;2023-11-19T11:57:08;12.00;99.90
31455;DHT22;18084;53.028;8.834;2023-11-19T11:59:52;12.10;99.90
31455;DHT22;18084;53.028;8.834;2023-11-19T12:02:20;12.00;99.90
31455;DHT22;18084;53.028;8.834;2023-11-19T12:04:49;12.00;99.90
31455;DHT22;18084;53.028;8.834;2023-11-19T12:07:20;13.20;99.90
31455;DHT22;18084;53.028;8.834;2023-11-19T12:09:49;11.90;99.90
31455;DHT22;18084;53.028;8.834;2023-11-19T12:12:32;12.00;99.90
31455;DHT22;18084;53.028;8.834;2023-11-19T12:15:06;12.00;99.90
31455;DHT22;18084;53.028;8.834;2023-11-19T12:17:37;12.60;99.90
31455;DHT22;18084;53.028;8.834;2023-11-19T12:20:05;11.90;99.90
31455;DHT22;18084;53.028;8.834;2023-11-19T12:22:38;11.90;99.90
31455;DHT22;18084;53.028;8.834;2023-11-19T12:25:06;11.80;99.90
31455;DHT22;18084;53.028;8.834;2023-11-19T12:27:48;11.80;99.90
31455;DHT22;18084;53.028;8.834;2023-11-19T12:30:23;11.70;99.90
31455;DHT22;18084;53.028;8.834;2023-11-19T12:32:54;11.80;99.90
31455;DHT22;18084;53.028;8.834;2023-11-19T12:35:23;13.40;99.90
31455;DHT22;18084;53.028;8.834;2023-11-19T12:37:50;11.60;99.90
31455;DHT22;18084;53.028;8.834;2023-11-19T12:42:54;11.60;99.90
31455;DHT22;18084;53.028;8.834;2023-11-19T12:45:20;11.50;99.90
31455;DHT22;18084;53.028;8.834;2023-11-19T12:48:05;11.50;99.90
31455;DHT22;18084;53.028;8.834;2023-11-19T12:50:57;11.30;99.90
31455;DHT22;18084;53.028;8.834;2023-11-19T12:53:24;11.20;99.90
31455;DHT22;18084;53.028;8.834;2023-11-19T12:55:50;11.10;99.90
31455;DHT22;18084;53.028;8.834;2023-11-19T12:58:33;11.10;99.90
31455;DHT22;18084;53.028;8.834;2023-11-19T13:01:02;10.90;99.90
31455;DHT22;18084;53.028;8.834;2023-11-19T13:03:38;12.50;99.90
31455;DHT22;18084;53.028;8.834;2023-11-19T13:06:05;10.70;99.90
31455;DHT22;18084;53.028;8.834;2023-11-19T13:08:51;10.50;99.90
31455;DHT22;18084;53.028;8.834;2023-11-19T13:11:34;10.50;99.90
31455;DHT22;18084;53.028;8.834;2023-11-19T13:14:02;10.50;99.90
31455;DHT22;18084;53.028;8.834;2023-11-19T13:16:30;10.40;99.90
31455;DHT22;18084;53.028;8.834;2023-11-19T13:18:56;10.50;99.90
31455;DHT22;18084;53.028;8.834;2023-11-19T13:21:22;10.50;99.90
31455;DHT22;18084;53.028;8.834;2023-11-19T13:23:48;10.40;99.90
31455;DHT22;18084;53.028;8.834;2023-11-19T13:26:14;10.40;99.90
31455;DHT22;18084;53.028;8.834;2023-11-19T13:28:39;10.30;99.90
31455;DHT22;18084;53.028;8.834;2023-11-19T13:31:05;10.30;99.90
31455;DHT22;18084;53.028;8.834;2023-11-19T13:33:31;10.30;99.90
31455;DHT22;18084;53.028;8.834;2023-11-19T13:35:56;10.30;99.90
31455;DHT22;18084;53.028;8.834;2023-11-19T13:38:22;10.30;99.90
31455;DHT22;18084;53.028;8.834;2023-11-19T13:40:49;10.40;99.90
31455;DHT22;18084;53.028;8.834;2023-11-19T13:43:14;10.40;99.90
31455;DHT22;18084;53.028;8.834;2023-11-19T13:45:40;10.40;99.90
31455;DHT22;18084;53.028;8.834;2023-11-19T13:48:06;10.50;99.90
31455;DHT22;18084;53.028;8.834;2023-11-19T13:50:31;10.50;99.90
31455;DHT22;18084;53.028;8.834;2023-11-19T13:52:57;10.50;99.90
31455;DHT22;18084;53.028;8.834;2023-11-19T13:55:22;10.50;99.90
31455;DHT22;18084;53.028;8.834;2023-11-19T13:57:48;10.50;99.90
31455;DHT22;18084;53.028;8.834;2023-11-19T14:00:17;10.50;99.90
31455;DHT22;18084;53.028;8.834;2023-11-19T14:02:53;11.70;99.90
31455;DHT22;18084;53.028;8.834;2023-11-19T14:05:19;10.50;99.90
31455;DHT22;18084;53.028;8.834;2023-11-19T14:07:50;10.60;99.90
31455;DHT22;18084;53.028;8.834;2023-11-19T14:10:17;10.60;99.90
31455;DHT22;18084;53.028;8.834;2023-11-19T14:12:42;10.60;99.90
31455;DHT22;18084;53.028;8.834;2023-11-19T14:15:09;10.60;99.90
31455;DHT22;18084;53.028;8.834;2023-11-19T14:17:36;10.60;99.90
31455;DHT22;18084;53.028;8.834;2023-11-19T14:20:05;10.70;99.90
31455;DHT22;18084;53.028;8.834;2023-11-19T14:22:39;10.70;99.90
31455;DHT22;18084;53.028;8.834;2023-11-19T14:25:05;10.70;99.90
31455;DHT22;18084;53.028;8.834;2023-11-19T14:27:33;10.70;99.90
31455;DHT22;18084;53.028;8.834;2023-11-19T14:29:58;10.70;99.90
31455;DHT22;18084;53.028;8.834;2023-11-19T14:32:24;10.70;99.90
31455;DHT22;18084;53.028;8.834;2023-11-19T14:34:49;10.70;99.90
31455;DHT22;18084;53.028;8.834;2023-11-19T14:37:15;10.60;99.90
31455;DHT22;18084;53.028;8.834;2023-11-19T14:39:41;10.60;99.90
31455;DHT22;18084;53.028;8.834;2023-11-19T14:42:07;13.00;99.90
31455;DHT22;18084;53.028;8.834;2023-11-19T14:44:37;10.60;99.90
31455;DHT22;18084;53.028;8.834;2023-11-19T14:47:02;10.50;99.90
31455;DHT22;18084;53.028;8.834;2023-11-19T14:49:28;10.60;99.90
31455;DHT22;18084;53.028;8.834;2023-11-19T14:51:53;10.50;99.90
31455;DHT22;18084;53.028;8.834;2023-11-19T14:54:19;10.50;99.90
31455;DHT22;18084;53.028;8.834;2023-11-19T14:56:44;10.40;99.90
31455;DHT22;18084;53.028;8.834;2023-11-19T14:59:10;10.40;99.90
31455;DHT22;18084;53.028;8.834;2023-11-19T15:01:35;10.40;99.90
31455;DHT22;18084;53.028;8.834;2023-11-19T15:04:01;10.40;99.90
31455;DHT22;18084;53.028;8.834;2023-11-19T15:06:26;10.30;99.90
31455;DHT22;18084;53.028;8.834;2023-11-19T15:08:53;10.30;99.90
31455;DHT22;18084;53.028;8.834;2023-11-19T15:11:18;10.40;99.90
31455;DHT22;18084;53.028;8.834;2023-11-19T15:13:44;10.40;99.90
31455;DHT22;18084;53.028;8.834;2023-11-19T15:16:09;10.40;99.90
31455;DHT22;18084;53.028;8.834;2023-11-19T15:18:40;10.30;99.90
31455;DHT22;18084;53.028;8.834;2023-11-19T15:21:05;10.30;99.90
31455;DHT22;18084;53.028;8.834;2023-11-19T15:23:31;10.40;99.90
31455;DHT22;18084;53.028;8.834;2023-11-19T15:25:56;10.30;99.90
31455;DHT22;18084;53.028;8.834;2023-11-19T15:33:14;10.20;99.90
31455;DHT22;18084;53.028;8.834;2023-11-19T15:38:06;10.20;99.90
31455;DHT22;18084;53.028;8.834;2023-11-19T15:40:35;10.20;99.90
31455;DHT22;18084;53.028;8.834;2023-11-19T15:43:01;10.20;99.90
31455;DHT22;18084;53.028;8.834;2023-11-19T15:45:27;10.20;99.90
31455;DHT22;18084;53.028;8.834;2023-11-19T15:47:52;10.20;99.90
31455;DHT22;18084;53.028;8.834;2023-11-19T15:50:21;10.20;99.90
31455;DHT22;18084;53.028;8.834;2023-11-19T15:52:46;12.20;99.90
31455;DHT22;18084;53.028;8.834;2023-11-19T15:55:13;10.20;99.90
31455;DHT22;18084;53.028;8.834;2023-11-19T15:57:38;10.20;99.90
31455;DHT22;18084;53.028;8.834;2023-11-19T16:00:04;10.20;99.90
31455;DHT22;18084;53.028;8.834;2023-11-19T16:02:30;10.30;99.90
31455;DHT22;18084;53.028;8.834;2023-11-19T16:04:56;10.30;99.90
31455;DHT22;18084;53.028;8.834;2023-11-19T16:07:21;10.30;99.90
31455;DHT22;18084;53.028;8.834;2023-11-19T16:09:47;10.40;99.90
31455;DHT22;18084;53.028;8.834;2023-11-19T16:12:13;10.40;99.90
31455;DHT22;18084;53.028;8.834;2023-11-19T16:14:39;10.40;99.90
31455;DHT22;18084;53.028;8.834;2023-11-19T16:17:05;10.40;99.90
31455;DHT22;18084;53.028;8.834;2023-11-19T16:19:31;10.40;99.90
31455;DHT22;18084;53.028;8.834;2023-11-19T16:22:00;10.40;99.90
31455;DHT22;18084;53.028;8.834;2023-11-19T16:24:35;10.40;99.90
31455;DHT22;18084;53.028;8.834;2023-11-19T16:27:01;10.40;99.90
31455;DHT22;18084;53.028;8.834;2023-11-19T16:29:31;10.40;99.90
31455;DHT22;18084;53.028;8.834;2023-11-19T16:34:22;10.50;99.90
31455;DHT22;18084;53.028;8.834;2023-11-19T16:36:48;10.50;99.90
31455;DHT22;18084;53.028;8.834;2023-11-19T16:39:15;10.50;99.90
31455;DHT22;18084;53.028;8.834;2023-11-19T16:41:40;10.50;99.90
31455;DHT22;18084;53.028;8.834;2023-11-19T16:44:06;10.50;99.90
31455;DHT22;18084;53.028;8.834;2023-11-19T16:46:35;10.50;99.90
31455;DHT22;18084;53.028;8.834;2023-11-19T16:49:01;10.50;99.90
31455;DHT22;18084;53.028;8.834;2023-11-19T16:51:27;10.40;99.90
31455;DHT22;18084;53.028;8.834;2023-11-19T16:53:52;10.50;99.90
31455;DHT22;18084;53.028;8.834;2023-11-19T16:56:18;10.50;99.90
31455;DHT22;18084;53.028;8.834;2023-11-19T16:58:45;10.50;99.90
31455;DHT22;18084;53.028;8.834;2023-11-19T17:01:11;10.50;99.90
31455;DHT22;18084;53.028;8.834;2023-11-19T17:03:37;10.50;99.90
31455;DHT22;18084;53.028;8.834;2023-11-19T17:06:04;10.50;99.90
31455;DHT22;18084;53.028;8.834;2023-11-19T17:08:29;10.50;99.90
31455;DHT22;18084;53.028;8.834;2023-11-19T17:11:02;10.50;99.90
31455;DHT22;18084;53.028;8.834;2023-11-19T17:13:34;10.40;99.90
31455;DHT22;18084;53.028;8.834;2023-11-19T17:16:00;10.40;99.90